Time;durP1;ratioP1;P1;durP2;ratioP2;P2;SDS_P1;SDS_P2;PMS_P1;PMS_P2;Temp;Humidity;BMP_temperature;BMP_pressure;BME280_temperature;BME280_humidity;BME280_pressure;Samples;Min_cycle;Max_cycle;Signal;HPM_P1;HPM_P2
2023/10/23 00:01:39;;;;;;;10.90;3.05;;;;;;;11.77;75.83;99756.00;6049086;23;20338;-93
2023/10/23 00:04:06;;;;;;;6.63;2.83;;;;;;;11.76;75.71;99758.84;6096293;23;20025;-93
2023/10/23 00:06:34;;;;;;;10.90;2.50;;;;;;;11.71;75.98;99752.13;6095667;23;20044;-93
2023/10/23 00:09:02;;;;;;;5.05;2.45;;;;;;;11.72;75.69;99755.63;6122547;23;20370;-92
2023/10/23 00:11:30;;;;;;;5.70;2.70;;;;;;;11.71;75.60;99757.44;6098902;23;20071;-93
2023/10/23 00:13:57;;;;;;;6.68;2.97;;;;;;;11.70;75.86;99760.22;6098449;23;20052;-93
2023/10/23 00:16:24;;;;;;;7.05;2.47;;;;;;;11.70;75.80;99765.56;6098328;23;20017;-93
2023/10/23 00:18:54;;;;;;;6.38;2.40;;;;;;;11.68;75.72;99757.72;6074186;23;20017;-92
2023/10/23 00:21:21;;;;;;;8.43;2.97;;;;;;;11.67;75.76;99764.03;6098747;23;20026;-94
2023/10/23 00:23:48;;;;;;;6.55;2.70;;;;;;;11.66;75.63;99762.34;6073840;23;20032;-93
2023/10/23 00:26:15;;;;;;;6.90;2.65;;;;;;;11.63;75.24;99775.94;6074237;23;20033;-93
2023/10/23 00:28:49;;;;;;;4.43;2.42;;;;;;;11.60;74.92;99772.72;6077023;23;20036;-93
2023/10/23 00:31:16;;;;;;;8.57;2.80;;;;;;;11.55;74.76;99767.00;6097441;23;20049;-94
2023/10/23 00:33:43;;;;;;;6.30;1.98;;;;;;;11.56;74.74;99766.88;6097676;23;20014;-93
2023/10/23 00:36:10;;;;;;;6.22;2.38;;;;;;;11.54;74.78;99770.66;6074042;23;20021;-92
2023/10/23 00:38:37;;;;;;;7.63;2.50;;;;;;;11.49;74.54;99758.59;6097619;23;20037;-92
2023/10/23 00:41:03;;;;;;;7.75;2.10;;;;;;;11.51;74.68;99769.13;6098237;23;20022;-92
2023/10/23 00:43:30;;;;;;;5.20;2.33;;;;;;;11.50;74.53;99770.94;6097195;23;20098;-92
2023/10/23 00:46:01;;;;;;;5.57;2.50;;;;;;;11.47;74.06;99778.34;6098563;23;20076;-93
2023/10/23 00:48:28;;;;;;;7.38;2.38;;;;;;;11.43;74.38;99783.13;6096945;23;20079;-93
2023/10/23 00:50:57;;;;;;;8.77;2.30;;;;;;;11.45;74.25;99777.69;6074226;23;20337;-92
2023/10/23 00:53:26;;;;;;;9.75;2.70;;;;;;;11.43;73.92;99775.16;6097766;23;20100;-93
2023/10/23 00:55:55;;;;;;;9.27;2.10;;;;;;;11.41;73.89;99781.59;6073687;23;20080;-93
2023/10/23 00:58:26;;;;;;;6.57;2.70;;;;;;;11.40;73.82;99783.41;6097683;23;20021;-93
2023/10/23 01:00:54;;;;;;;8.07;2.35;;;;;;;11.38;73.82;99776.56;6074790;23;20449;-93
2023/10/23 01:03:22;;;;;;;6.88;3.00;;;;;;;11.38;74.10;99772.06;6097471;23;20445;-93
2023/10/23 01:05:49;;;;;;;5.22;2.60;;;;;;;11.36;74.30;99773.19;6073767;23;20022;-93
2023/10/23 01:08:16;;;;;;;6.70;2.40;;;;;;;11.34;74.24;99775.16;6049311;23;20021;-92
2023/10/23 01:10:43;;;;;;;9.80;2.60;;;;;;;11.31;74.24;99776.28;6072465;23;20035;-93
2023/10/23 01:13:10;;;;;;;6.82;2.38;;;;;;;11.30;74.09;99764.81;6121237;23;20021;-93
2023/10/23 01:15:37;;;;;;;6.07;2.45;;;;;;;11.28;73.83;99766.78;6097002;23;20461;-93
2023/10/23 01:18:04;;;;;;;8.13;2.75;;;;;;;11.28;73.83;99765.94;6073356;23;20030;-93
2023/10/23 01:20:31;;;;;;;9.98;2.70;;;;;;;11.25;73.79;99767.06;6097045;23;20760;-93
2023/10/23 01:23:00;;;;;;;5.10;3.08;;;;;;;11.24;73.90;99765.38;6096973;23;20030;-93
2023/10/23 01:25:28;;;;;;;5.93;2.30;;;;;;;11.20;73.86;99764.00;6096894;23;20032;-93
2023/10/23 01:27:55;;;;;;;6.47;3.08;;;;;;;11.18;74.19;99768.59;6097598;23;20022;-93
2023/10/23 01:30:22;;;;;;;5.47;2.40;;;;;;;11.18;74.13;99770.44;6097034;23;20028;-93
2023/10/23 01:32:49;;;;;;;7.38;2.60;;;;;;;11.16;74.54;99764.41;6097214;23;20100;-93
2023/10/23 01:35:16;;;;;;;10.27;2.83;;;;;;;11.20;74.64;99777.28;6049593;23;20072;-93
2023/10/23 01:37:44;;;;;;;7.22;2.17;;;;;;;11.19;74.57;99769.44;6072527;23;20025;-93
2023/10/23 01:40:12;;;;;;;3.45;2.30;;;;;;;11.19;74.65;99772.09;6095941;23;20022;-93
2023/10/23 01:42:39;;;;;;;8.23;2.75;;;;;;;11.13;74.48;99768.19;6097739;23;20021;-92
2023/10/23 01:45:06;;;;;;;5.18;2.38;;;;;;;11.14;74.38;99761.88;6050218;23;20045;-94
2023/10/23 01:47:33;;;;;;;3.33;2.17;;;;;;;11.17;74.66;99760.75;6097410;23;20025;-92
2023/10/23 01:50:00;;;;;;;9.18;2.92;;;;;;;11.14;74.44;99763.69;6098173;23;20891;-92
2023/10/23 01:52:27;;;;;;;5.32;1.98;;;;;;;11.13;74.23;99756.72;6074015;23;20409;-93
2023/10/23 01:54:54;;;;;;;6.72;2.90;;;;;;;11.11;74.23;99756.03;6097491;23;20029;-93
2023/10/23 01:57:21;;;;;;;8.27;2.38;;;;;;;11.08;73.75;99757.13;6074380;23;20033;-92
2023/10/23 01:59:48;;;;;;;4.88;2.08;;;;;;;11.04;74.17;99753.94;6073367;23;20405;-92
2023/10/23 02:02:14;;;;;;;6.65;2.05;;;;;;;11.03;74.28;99757.56;6097465;23;20037;-93
2023/10/23 02:04:41;;;;;;;7.47;3.08;;;;;;;11.02;74.32;99765.69;6097687;23;20020;-93
2023/10/23 02:07:09;;;;;;;6.25;1.92;;;;;;;10.99;74.36;99769.47;6073793;23;20017;-92
2023/10/23 02:09:36;;;;;;;8.95;3.53;;;;;;;10.97;74.22;99774.06;6097009;23;20438;-93
2023/10/23 02:12:04;;;;;;;9.65;3.90;;;;;;;10.99;74.18;99772.13;6098155;23;20036;-93
2023/10/23 02:14:31;;;;;;;3.83;2.17;;;;;;;10.96;73.80;99761.75;6097790;23;20364;-93
2023/10/23 02:16:58;;;;;;;4.90;2.20;;;;;;;10.96;74.05;99767.06;6072970;23;20109;-93
2023/10/23 02:19:25;;;;;;;11.95;2.92;;;;;;;10.99;74.26;99765.94;6096919;23;20017;-93
2023/10/23 02:21:52;;;;;;;7.03;2.40;;;;;;;10.98;74.14;99766.94;6096427;23;20349;-93
2023/10/23 02:24:22;;;;;;;12.18;2.78;;;;;;;10.96;74.27;99767.06;6095880;23;20025;-93
2023/10/23 02:26:49;;;;;;;6.40;2.33;;;;;;;10.98;74.11;99777.56;6095544;23;20084;-93
2023/10/23 02:29:16;;;;;;;5.07;2.35;;;;;;;10.93;73.66;99764.69;6096665;23;20378;-93
2023/10/23 02:31:42;;;;;;;4.18;2.38;;;;;;;10.92;73.79;99775.47;6049091;23;20486;-93
2023/10/23 02:34:09;;;;;;;6.22;2.30;;;;;;;10.90;73.59;99778.25;6096193;23;20378;-93
2023/10/23 02:36:36;;;;;;;4.18;2.33;;;;;;;10.90;73.60;99772.13;6096743;23;20017;-92
2023/10/23 02:39:03;;;;;;;5.47;2.17;;;;;;;10.87;73.39;99773.22;6096546;23;20022;-93
2023/10/23 02:41:30;;;;;;;15.40;3.20;;;;;;;10.85;73.65;99769.88;6097077;23;20041;-94
2023/10/23 02:43:57;;;;;;;17.33;4.05;;;;;;;10.80;74.18;99766.78;6097329;23;20076;-92
2023/10/23 02:46:24;;;;;;;11.85;3.70;;;;;;;10.76;74.76;99770.69;6097062;23;20022;-93
2023/10/23 02:48:53;;;;;;;11.65;3.15;;;;;;;10.75;74.78;99777.00;6097191;23;20032;-93
2023/10/23 02:51:20;;;;;;;8.23;2.60;;;;;;;10.73;74.29;99776.28;6097773;23;20018;-92
2023/10/23 02:53:47;;;;;;;7.85;2.97;;;;;;;10.73;74.39;99779.78;6049210;23;20105;-93
2023/10/23 02:56:14;;;;;;;10.50;3.58;;;;;;;10.72;74.54;99777.28;6072906;23;20025;-93
2023/10/23 02:58:41;;;;;;;13.18;3.58;;;;;;;10.70;74.81;99780.06;6097058;23;20079;-93
2023/10/23 03:01:23;;;;;;;8.10;3.20;;;;;;;10.61;75.11;99781.72;6121163;23;20041;-93
2023/10/23 03:03:51;;;;;;;6.13;2.55;;;;;;;10.65;75.10;99783.13;6073635;23;20076;-92
2023/10/23 03:06:18;;;;;;;6.68;2.55;;;;;;;10.69;75.43;99789.00;6072996;23;20026;-92
2023/10/23 03:08:45;;;;;;;6.40;3.00;;;;;;;10.68;75.34;99786.47;6096929;23;20033;-93
2023/10/23 03:11:12;;;;;;;6.75;2.75;;;;;;;10.68;75.57;99787.31;6096654;23;20029;-92
2023/10/23 03:13:39;;;;;;;9.50;3.78;;;;;;;10.65;75.53;99780.47;6072934;23;20084;-91
2023/10/23 03:16:07;;;;;;;11.30;2.92;;;;;;;10.63;75.81;99785.09;6049258;23;20088;-93
2023/10/23 03:18:34;;;;;;;10.35;2.85;;;;;;;10.64;75.91;99781.44;6096637;23;20025;-92
2023/10/23 03:21:01;;;;;;;10.48;2.90;;;;;;;10.66;75.52;99786.63;6096993;23;20029;-93
2023/10/23 03:23:30;;;;;;;10.55;3.10;;;;;;;10.61;75.75;99779.06;6072799;23;20099;-93
2023/10/23 03:25:57;;;;;;;9.05;2.80;;;;;;;10.57;76.02;99777.66;6096195;23;20398;-93
2023/10/23 03:28:23;;;;;;;7.80;3.20;;;;;;;10.59;76.06;99786.34;6095544;23;20021;-93
2023/10/23 03:30:50;;;;;;;13.82;3.00;;;;;;;10.56;76.20;99778.66;6096399;23;20517;-92
2023/10/23 03:33:17;;;;;;;5.80;3.22;;;;;;;10.58;75.90;99789.13;6072901;23;20477;-92
2023/10/23 03:35:44;;;;;;;5.60;3.17;;;;;;;10.56;75.82;99791.91;6096386;23;20025;-93
2023/10/23 03:38:13;;;;;;;19.20;5.90;;;;;;;10.54;76.30;99785.06;6096183;23;20025;-91
2023/10/23 03:40:40;;;;;;;15.98;7.95;;;;;;;10.54;76.39;99790.38;6050120;23;20017;-92
2023/10/23 03:43:07;;;;;;;11.65;4.93;;;;;;;10.49;76.70;99789.94;6099174;23;20029;-93
2023/10/23 03:45:36;;;;;;;5.25;2.97;;;;;;;10.50;76.55;99795.09;6074227;23;20029;-92
2023/10/23 03:48:03;;;;;;;6.85;3.75;;;;;;;10.47;76.80;99792.72;6098954;23;22659;-92
2023/10/23 03:50:30;;;;;;;13.90;7.13;;;;;;;10.48;76.71;99785.59;6098263;23;20096;-93
2023/10/23 03:52:57;;;;;;;6.88;2.92;;;;;;;10.46;76.80;99793.72;6074528;23;20338;-92
2023/10/23 03:55:24;;;;;;;4.15;2.78;;;;;;;10.47;76.81;99787.41;6097792;23;20033;-91
2023/10/23 03:57:51;;;;;;;2.88;2.10;;;;;;;10.49;77.14;99787.28;6098409;23;20037;-92
2023/10/23 04:00:18;;;;;;;6.18;2.50;;;;;;;10.48;76.79;99786.47;6074112;23;20076;-92
2023/10/23 04:02:45;;;;;;;11.50;4.30;;;;;;;10.49;76.94;99790.78;6050939;23;20029;-92
2023/10/23 04:05:13;;;;;;;13.27;10.60;;;;;;;10.43;77.35;99786.88;6097143;23;20028;-91
2023/10/23 04:07:40;;;;;;;7.28;2.63;;;;;;;10.40;77.42;99787.09;6097325;23;20032;-93
2023/10/23 04:10:07;;;;;;;11.80;2.60;;;;;;;10.38;77.39;99783.78;6122760;23;20033;-92
2023/10/23 04:12:34;;;;;;;10.45;3.13;;;;;;;10.37;77.44;99775.94;6073962;23;20021;-94
2023/10/23 04:15:01;;;;;;;15.63;3.58;;;;;;;10.35;77.67;99784.03;6074313;23;20083;-93
2023/10/23 04:17:29;;;;;;;14.27;2.75;;;;;;;10.33;77.52;99775.38;6050976;23;20033;-93
2023/10/23 04:19:56;;;;;;;17.65;3.78;;;;;;;10.29;77.59;99771.31;6059491;23;20101;-94
2023/10/23 04:22:23;;;;;;;17.27;4.07;;;;;;;10.29;77.89;99781.09;6074645;23;20084;-92
2023/10/23 04:24:53;;;;;;;10.10;3.20;;;;;;;10.29;78.14;99770.47;6098422;23;20017;-92
2023/10/23 04:27:20;;;;;;;14.88;3.78;;;;;;;10.30;78.29;99775.63;6097904;23;20014;-93
2023/10/23 04:29:47;;;;;;;17.55;4.50;;;;;;;10.30;77.99;99774.78;6074788;23;20105;-92
2023/10/23 04:32:14;;;;;;;16.58;4.75;;;;;;;10.29;77.93;99771.31;6074572;23;20051;-93
2023/10/23 04:34:41;;;;;;;15.75;5.22;;;;;;;10.29;78.28;99770.47;6098384;23;20057;-92
2023/10/23 04:37:08;;;;;;;13.48;4.40;;;;;;;10.29;78.22;99773.97;6097761;23;20021;-92
2023/10/23 04:39:35;;;;;;;10.82;5.07;;;;;;;10.27;78.22;99765.25;6050466;23;20021;-92
2023/10/23 04:42:01;;;;;;;9.18;3.30;;;;;;;10.32;78.05;99768.38;6073849;23;20030;-92
2023/10/23 04:44:28;;;;;;;5.30;2.75;;;;;;;10.33;77.59;99771.88;6074121;23;20026;-92
2023/10/23 04:46:55;;;;;;;19.50;3.08;;;;;;;10.30;77.90;99770.31;6097384;23;20033;-91
2023/10/23 04:49:22;;;;;;;14.90;6.03;;;;;;;10.28;77.85;99763.47;6074198;23;20064;-93
2023/10/23 04:51:49;;;;;;;13.13;6.28;;;;;;;10.30;78.06;99766.84;6073449;23;20354;-92
2023/10/23 04:54:16;;;;;;;8.50;4.07;;;;;;;10.26;77.37;99752.16;6074075;23;20108;-93
2023/10/23 04:56:43;;;;;;;16.23;4.40;;;;;;;10.26;77.38;99752.16;6098399;23;20122;-92
2023/10/23 04:59:10;;;;;;;14.20;3.28;;;;;;;10.26;77.20;99747.66;6097390;23;20025;-92
2023/10/23 05:01:37;;;;;;;9.05;3.20;;;;;;;10.24;77.10;99749.63;6074632;23;20040;-93
2023/10/23 05:04:04;;;;;;;10.57;3.05;;;;;;;10.22;77.28;99743.59;6097218;23;20775;-92
2023/10/23 05:06:31;;;;;;;7.68;3.33;;;;;;;10.18;77.47;99745.69;6109130;23;20021;-93
2023/10/23 05:08:58;;;;;;;8.55;3.70;;;;;;;10.16;77.43;99747.63;6123050;23;20021;-91
2023/10/23 05:11:25;;;;;;;5.13;3.67;;;;;;;10.17;77.77;99743.16;6074080;23;20048;-94
2023/10/23 05:13:52;;;;;;;9.98;3.95;;;;;;;10.16;78.13;99750.28;6121694;23;20032;-92
2023/10/23 05:16:19;;;;;;;11.80;4.18;;;;;;;10.11;77.75;99739.25;6074415;23;20017;-92
2023/10/23 05:18:47;;;;;;;13.43;4.63;;;;;;;10.13;78.13;99741.78;6073710;23;20025;-92
2023/10/23 05:21:14;;;;;;;14.10;4.07;;;;;;;10.10;77.90;99740.22;6074675;23;20026;-92
2023/10/23 05:23:41;;;;;;;10.88;4.70;;;;;;;10.09;78.13;99740.34;6119177;23;20017;-85
2023/10/23 05:26:10;;;;;;;10.20;4.38;;;;;;;10.08;78.14;99744.00;6118422;23;20347;-86
2023/10/23 05:28:39;;;;;;;10.38;3.95;;;;;;;10.07;77.91;99740.47;6118452;23;20354;-85
2023/10/23 05:31:08;;;;;;;9.52;4.25;;;;;;;10.07;77.69;99745.78;6117419;23;20029;-86
2023/10/23 05:33:35;;;;;;;9.60;4.45;;;;;;;10.05;77.75;99747.75;6118573;23;20611;-86
2023/10/23 05:36:04;;;;;;;8.80;4.60;;;;;;;10.04;77.91;99748.72;6119120;23;20084;-86
2023/10/23 05:38:31;;;;;;;9.60;4.35;;;;;;;10.03;77.57;99749.69;6117976;23;20031;-85
2023/10/23 05:40:58;;;;;;;9.75;4.63;;;;;;;10.03;77.33;99751.50;6092541;23;20458;-85
2023/10/23 05:43:26;;;;;;;16.23;5.00;;;;;;;9.99;77.37;99751.75;6117909;23;20022;-85
2023/10/23 05:45:54;;;;;;;13.85;4.38;;;;;;;9.96;77.43;99752.03;6069893;23;20053;-85
2023/10/23 05:48:21;;;;;;;6.93;4.00;;;;;;;9.98;77.68;99759.88;6091367;23;20025;-84
2023/10/23 05:51:04;;;;;;;5.47;3.78;;;;;;;9.93;77.70;99752.31;6117751;23;20026;-86
2023/10/23 05:53:31;;;;;;;8.82;4.18;;;;;;;9.94;77.61;99758.44;6117494;23;20029;-85
2023/10/23 05:56:05;;;;;;;17.83;4.88;;;;;;;9.91;77.86;99769.31;6093539;23;20022;-86
2023/10/23 05:58:35;;;;;;;10.95;4.13;;;;;;;9.89;77.87;99776.56;6069021;23;20718;-86
2023/10/23 06:01:12;;;;;;;8.18;3.83;;;;;;;9.86;78.24;99767.06;6141627;23;20256;-85
2023/10/23 06:03:39;;;;;;;9.43;3.97;;;;;;;9.88;78.14;99767.78;6092480;23;20105;-85
2023/10/23 06:06:06;;;;;;;9.30;4.50;;;;;;;9.90;78.04;99765.00;6070063;23;20025;-86
2023/10/23 06:08:33;;;;;;;9.13;4.53;;;;;;;9.90;78.12;99771.16;6069555;23;20045;-86
2023/10/23 06:11:01;;;;;;;5.68;3.92;;;;;;;9.92;77.68;99768.34;6093582;23;20886;-86
2023/10/23 06:13:28;;;;;;;6.13;3.03;;;;;;;9.92;78.02;99773.66;6118939;23;20024;-85
2023/10/23 06:16:02;;;;;;;9.32;4.30;;;;;;;9.87;77.88;99759.94;6092582;23;20752;-87
2023/10/23 06:18:37;;;;;;;9.73;3.92;;;;;;;9.87;77.53;99766.13;6118776;23;20093;-84
2023/10/23 06:21:06;;;;;;;11.80;6.15;;;;;;;9.89;77.54;99771.25;6093152;23;20029;-84
2023/10/23 06:23:37;;;;;;;17.30;7.95;;;;;;;9.89;77.59;99774.75;6094082;23;20438;-84
2023/10/23 06:26:05;;;;;;;12.25;6.40;;;;;;;9.90;77.43;99773.81;6070037;23;20100;-87
2023/10/23 06:28:32;;;;;;;10.35;5.57;;;;;;;9.90;77.41;99770.31;6094367;23;20025;-86
2023/10/23 06:31:06;;;;;;;6.30;4.28;;;;;;;9.83;77.52;99770.00;6118687;23;20095;-86
2023/10/23 06:33:35;;;;;;;7.13;3.50;;;;;;;9.84;77.95;99770.81;6094638;23;20048;-85
2023/10/23 06:36:03;;;;;;;9.90;3.72;;;;;;;9.84;78.25;99773.47;6118252;23;20026;-84
2023/10/23 06:38:30;;;;;;;8.00;4.15;;;;;;;9.81;78.50;99763.97;6093197;23;20017;-84
2023/10/23 06:41:02;;;;;;;12.48;4.43;;;;;;;9.78;78.32;99773.03;6067666;23;20668;-85
2023/10/23 06:43:29;;;;;;;6.88;3.75;;;;;;;9.77;78.60;99758.09;6090053;23;20080;-85
2023/10/23 06:45:56;;;;;;;6.13;3.85;;;;;;;9.78;78.23;99762.44;6117975;23;20731;-85
2023/10/23 06:48:31;;;;;;;5.53;3.55;;;;;;;9.82;78.16;99756.84;6094055;23;20031;-87
2023/10/23 06:50:59;;;;;;;8.52;3.60;;;;;;;9.85;78.95;99765.41;6118210;23;20037;-85
2023/10/23 06:53:26;;;;;;;5.95;3.47;;;;;;;9.88;78.88;99764.28;6094366;23;20018;-85
2023/10/23 06:55:54;;;;;;;6.68;3.70;;;;;;;9.91;79.00;99769.31;6092222;23;20029;-85
2023/10/23 06:58:21;;;;;;;7.40;3.42;;;;;;;9.93;78.83;99780.66;6117001;23;20056;-87
2023/10/23 07:00:48;;;;;;;4.75;3.60;;;;;;;9.93;78.63;99776.19;6117361;23;20670;-85
2023/10/23 07:03:15;;;;;;;7.18;4.80;;;;;;;9.94;78.97;99771.72;6141189;23;20454;-86
2023/10/23 07:05:43;;;;;;;8.70;4.95;;;;;;;9.97;78.68;99767.00;6092620;23;20045;-85
2023/10/23 07:08:10;;;;;;;8.20;4.93;;;;;;;9.94;78.53;99764.59;6093933;23;20021;-85
2023/10/23 07:10:37;;;;;;;10.30;5.03;;;;;;;9.95;78.11;99763.63;6092906;23;20032;-85
2023/10/23 07:13:04;;;;;;;9.18;5.13;;;;;;;9.96;77.96;99759.16;6118082;23;20018;-85
2023/10/23 07:15:47;;;;;;;5.30;3.72;;;;;;;9.92;77.16;99755.94;6121017;23;20485;-85
2023/10/23 07:18:14;;;;;;;5.38;3.90;;;;;;;9.93;77.40;99760.25;6118720;23;20950;-86
2023/10/23 07:20:52;;;;;;;7.53;3.70;;;;;;;9.91;77.35;99758.72;6119680;23;20045;-85
2023/10/23 07:23:18;;;;;;;6.65;4.22;;;;;;;9.93;77.20;99768.22;6094659;23;20039;-84
2023/10/23 07:25:45;;;;;;;8.43;3.60;;;;;;;9.97;77.23;99766.13;6095152;23;20025;-85
2023/10/23 07:28:12;;;;;;;9.88;3.78;;;;;;;9.97;76.82;99766.13;6070346;23;20018;-85
2023/10/23 07:30:39;;;;;;;7.00;3.88;;;;;;;9.97;76.99;99763.47;6118110;23;20017;-85
2023/10/23 07:33:06;;;;;;;10.68;4.32;;;;;;;10.00;77.45;99765.88;6095298;23;20040;-85
2023/10/23 07:35:32;;;;;;;7.53;3.85;;;;;;;10.03;77.53;99762.97;6094340;23;20025;-84
2023/10/23 07:38:18;;;;;;;8.02;3.60;;;;;;;10.04;77.35;99761.13;6121882;23;20719;-86
2023/10/23 07:40:45;;;;;;;8.00;3.63;;;;;;;10.03;77.20;99751.50;6118572;23;20092;-85
2023/10/23 07:43:12;;;;;;;10.32;4.05;;;;;;;10.04;77.39;99756.66;6118919;23;20038;-85
2023/10/23 07:45:39;;;;;;;7.80;4.05;;;;;;;10.03;77.49;99751.50;6094901;23;21092;-85
2023/10/23 07:48:06;;;;;;;7.07;3.30;;;;;;;10.02;77.22;99745.34;6094959;23;20017;-85
2023/10/23 07:50:33;;;;;;;10.30;4.00;;;;;;;10.03;77.05;99735.59;6143005;23;20036;-84
2023/10/23 07:53:00;;;;;;;8.25;4.53;;;;;;;10.02;77.31;99729.44;6120464;23;20029;-85
2023/10/23 07:55:27;;;;;;;17.17;5.82;;;;;;;10.00;77.65;99726.09;6143642;23;20032;-85
2023/10/23 07:57:54;;;;;;;8.55;4.15;;;;;;;10.01;78.14;99725.09;6094434;23;20410;-84
2023/10/23 08:00:21;;;;;;;9.23;6.25;;;;;;;10.00;78.24;99723.44;6071788;23;20088;-85
2023/10/23 08:02:48;;;;;;;9.38;5.03;;;;;;;10.03;78.76;99720.50;6119426;23;20028;-84
2023/10/23 08:05:15;;;;;;;10.10;4.80;;;;;;;10.06;79.28;99717.59;6117921;23;20586;-84
2023/10/23 08:07:41;;;;;;;6.85;4.43;;;;;;;10.08;79.33;99709.50;6142539;23;20510;-84
2023/10/23 08:10:09;;;;;;;6.55;3.75;;;;;;;10.11;78.93;99710.06;6071011;23;20017;-84
2023/10/23 08:12:35;;;;;;;6.50;3.95;;;;;;;10.13;79.39;99709.94;6094092;23;20032;-85
2023/10/23 08:15:02;;;;;;;7.95;4.22;;;;;;;10.12;79.94;99709.06;6094762;23;20394;-84
2023/10/23 08:17:29;;;;;;;9.82;4.35;;;;;;;10.16;80.39;99699.03;6118055;23;20021;-84
2023/10/23 08:20:09;;;;;;;8.40;4.20;;;;;;;10.14;80.30;99701.81;6121621;23;20017;-84
2023/10/23 08:22:36;;;;;;;11.10;4.15;;;;;;;10.15;80.72;99698.22;6094699;23;20028;-84
2023/10/23 08:25:04;;;;;;;13.38;4.47;;;;;;;10.19;80.74;99712.88;6093243;23;20076;-84
2023/10/23 08:27:30;;;;;;;11.63;5.10;;;;;;;10.22;80.77;99693.19;6069250;23;20025;-84
2023/10/23 08:29:57;;;;;;;9.05;4.55;;;;;;;10.25;81.45;99689.41;6070583;23;20357;-84
2023/10/23 08:32:24;;;;;;;6.82;4.28;;;;;;;10.29;81.59;99698.81;6118924;23;20581;-84
2023/10/23 08:35:07;;;;;;;6.53;4.10;;;;;;;10.30;81.57;99682.75;6117919;23;20457;-83
2023/10/23 08:37:33;;;;;;;9.45;6.15;;;;;;;10.34;81.80;99680.66;6117732;23;20030;-84
2023/10/23 08:40:03;;;;;;;10.82;5.43;;;;;;;10.37;82.24;99683.88;6071406;23;20087;-84
2023/10/23 08:42:30;;;;;;;9.00;4.93;;;;;;;10.43;82.17;99695.75;6094981;23;20461;-86
2023/10/23 08:44:57;;;;;;;9.05;5.10;;;;;;;10.44;82.32;99689.47;6070460;23;20414;-85
2023/10/23 08:47:24;;;;;;;7.95;4.60;;;;;;;10.47;82.48;99678.56;6094969;23;20029;-85
2023/10/23 08:49:52;;;;;;;8.75;5.05;;;;;;;10.52;82.67;99681.66;6094987;23;20017;-85
2023/10/23 08:52:21;;;;;;;7.15;4.68;;;;;;;10.57;82.88;99686.56;6143073;23;20079;-85
2023/10/23 08:54:50;;;;;;;7.38;4.25;;;;;;;10.58;83.43;99688.22;6093982;23;20022;-85
2023/10/23 08:57:19;;;;;;;10.15;4.68;;;;;;;10.61;83.59;99686.13;6094054;23;20017;-84
2023/10/23 08:59:46;;;;;;;8.43;4.63;;;;;;;10.63;83.89;99683.31;6093389;23;20461;-86
2023/10/23 09:02:13;;;;;;;9.48;4.78;;;;;;;10.65;84.02;99678.72;6095509;23;20088;-85
2023/10/23 09:04:40;;;;;;;10.00;4.32;;;;;;;10.68;84.25;99673.13;6118289;23;20029;-85
2023/10/23 09:07:13;;;;;;;9.85;4.97;;;;;;;10.68;84.47;99667.81;6091495;23;20025;-84
2023/10/23 09:09:40;;;;;;;6.78;4.38;;;;;;;10.73;84.65;99673.53;6070338;23;20348;-84
2023/10/23 09:12:07;;;;;;;11.45;4.97;;;;;;;10.76;84.92;99675.06;6142763;23;20025;-85
2023/10/23 09:14:35;;;;;;;13.18;4.57;;;;;;;10.77;85.19;99671.47;6119212;23;20028;-85
2023/10/23 09:17:05;;;;;;;13.38;4.38;;;;;;;10.83;85.18;99681.50;6095171;23;20029;-85
2023/10/23 09:19:36;;;;;;;8.98;4.57;;;;;;;10.88;85.26;99670.47;6071275;23;20390;-84
2023/10/23 09:22:06;;;;;;;11.32;4.63;;;;;;;10.94;85.54;99670.75;6095995;23;20490;-85
2023/10/23 09:24:35;;;;;;;8.43;4.35;;;;;;;10.96;86.53;99674.06;6094691;23;20030;-84
2023/10/23 09:27:03;;;;;;;8.20;3.45;;;;;;;11.03;86.20;99674.34;6069882;23;20645;-84
2023/10/23 09:29:29;;;;;;;11.52;4.25;;;;;;;11.06;86.27;99672.25;6095571;23;20442;-86
2023/10/23 09:31:58;;;;;;;8.52;3.95;;;;;;;11.11;86.31;99674.47;6143688;23;20083;-84
2023/10/23 09:34:26;;;;;;;11.52;3.80;;;;;;;11.13;86.10;99667.19;6119452;23;20458;-84
2023/10/23 09:36:52;;;;;;;6.95;2.90;;;;;;;11.17;86.04;99670.41;6093670;23;20052;-85
2023/10/23 09:39:22;;;;;;;5.82;3.30;;;;;;;11.19;85.95;99666.63;6119441;23;20345;-84
2023/10/23 09:41:49;;;;;;;8.27;3.50;;;;;;;11.21;86.29;99666.47;6093983;23;20026;-84
2023/10/23 09:44:17;;;;;;;5.90;3.00;;;;;;;11.25;86.31;99665.22;6118105;23;20687;-84
2023/10/23 09:46:46;;;;;;;9.63;4.32;;;;;;;11.25;86.37;99660.75;6093004;23;20080;-85
2023/10/23 09:49:14;;;;;;;5.78;2.58;;;;;;;11.27;86.21;99664.09;6094065;23;20088;-85
2023/10/23 09:51:42;;;;;;;5.53;2.80;;;;;;;11.30;86.33;99660.31;6093917;23;20029;-84
2023/10/23 09:54:15;;;;;;;7.60;2.90;;;;;;;11.33;86.45;99653.88;6118200;23;20476;-84
2023/10/23 09:56:51;;;;;;;10.77;3.88;;;;;;;11.34;86.95;99661.69;6118469;23;20033;-84
2023/10/23 09:59:24;;;;;;;6.50;3.00;;;;;;;11.38;86.87;99651.63;6070166;23;20109;-84
2023/10/23 10:01:57;;;;;;;5.07;2.90;;;;;;;11.39;86.96;99654.09;6094217;23;20096;-84
2023/10/23 10:04:56;;;;;;;8.07;2.60;;;;;;;11.42;86.99;99653.84;6093739;23;20100;-84
2023/10/23 10:07:33;;;;;;;5.07;2.60;;;;;;;11.44;87.69;99651.84;6128993;23;20107;-84
2023/10/23 10:10:01;;;;;;;4.63;2.58;;;;;;;11.50;87.21;99645.97;6118192;23;20650;-84
2023/10/23 10:12:28;;;;;;;6.72;2.20;;;;;;;11.54;87.39;99638.53;6092863;23;20335;-87
2023/10/23 10:14:56;;;;;;;4.90;2.15;;;;;;;11.57;87.30;99646.19;6093923;23;20061;-84
2023/10/23 10:17:23;;;;;;;7.25;2.15;;;;;;;11.61;87.12;99647.59;6117519;23;20030;-84
2023/10/23 10:19:50;;;;;;;6.65;2.38;;;;;;;11.63;86.99;99639.47;6117531;23;20029;-85
2023/10/23 10:22:24;;;;;;;4.82;1.83;;;;;;;11.67;86.94;99641.66;6070034;23;20453;-83
2023/10/23 10:24:52;;;;;;;6.32;2.20;;;;;;;11.70;87.34;99637.88;6092143;23;20025;-84
2023/10/23 10:27:19;;;;;;;5.90;2.08;;;;;;;11.72;87.02;99639.41;6118266;23;20390;-84
2023/10/23 10:29:46;;;;;;;6.65;2.38;;;;;;;11.74;87.19;99632.13;6117790;23;20021;-83
2023/10/23 10:32:13;;;;;;;8.32;2.53;;;;;;;11.78;87.14;99634.47;6119006;23;20041;-84
2023/10/23 10:34:46;;;;;;;6.43;2.58;;;;;;;11.76;87.95;99637.31;6144584;23;20029;-84
2023/10/23 10:37:24;;;;;;;4.55;2.63;;;;;;;11.81;87.66;99624.41;6117158;23;20119;-84
2023/10/23 10:40:03;;;;;;;6.18;2.20;;;;;;;11.79;87.79;99618.38;6118012;23;20761;-83
2023/10/23 10:42:35;;;;;;;5.30;2.35;;;;;;;11.82;87.51;99612.75;6070090;23;20026;-83
2023/10/23 10:45:11;;;;;;;5.78;2.22;;;;;;;11.80;87.54;99603.25;6141699;23;20028;-84
2023/10/23 10:47:54;;;;;;;4.57;2.30;;;;;;;11.81;87.51;99604.94;6069234;23;20044;-83
2023/10/23 10:50:38;;;;;;;4.85;2.42;;;;;;;11.79;88.21;99591.78;6094674;23;20382;-83
2023/10/23 10:53:07;;;;;;;7.22;2.42;;;;;;;11.84;88.01;99589.50;6094140;23;20926;-83
2023/10/23 10:55:36;;;;;;;3.75;2.17;;;;;;;11.85;88.47;99582.34;6093375;23;20076;-83
2023/10/23 10:58:04;;;;;;;10.55;2.47;;;;;;;11.86;88.22;99576.94;6141216;23;20080;-83
2023/10/23 11:00:32;;;;;;;7.20;2.10;;;;;;;11.89;88.50;99573.97;6118196;23;20478;-83
2023/10/23 11:03:00;;;;;;;6.65;2.20;;;;;;;11.90;88.45;99558.81;6092755;23;20029;-83
2023/10/23 11:05:27;;;;;;;5.63;2.40;;;;;;;11.89;88.57;99557.16;6118662;23;20327;-83
2023/10/23 11:07:53;;;;;;;6.05;2.17;;;;;;;11.91;88.62;99547.22;6116923;23;20025;-83
2023/10/23 11:10:21;;;;;;;8.90;2.42;;;;;;;11.94;88.66;99550.41;6117927;23;20021;-83
2023/10/23 11:12:50;;;;;;;5.72;2.40;;;;;;;11.95;89.11;99546.72;6069622;23;20357;-83
2023/10/23 11:15:17;;;;;;;7.90;2.50;;;;;;;11.98;89.08;99550.09;6093150;23;20028;-83
2023/10/23 11:17:44;;;;;;;5.38;2.65;;;;;;;12.00;89.21;99540.97;6091975;23;20021;-83
2023/10/23 11:20:12;;;;;;;5.10;2.17;;;;;;;12.02;89.08;99531.00;6116999;23;20025;-84
2023/10/23 11:22:44;;;;;;;6.43;2.53;;;;;;;12.03;89.10;99518.53;6093448;23;20044;-83
2023/10/23 11:25:11;;;;;;;5.40;1.60;;;;;;;12.04;89.03;99525.53;6069569;23;20021;-83
2023/10/23 11:27:38;;;;;;;4.32;1.60;;;;;;;12.06;89.81;99524.41;6116626;23;20017;-83
2023/10/23 11:30:06;;;;;;;4.65;1.90;;;;;;;12.07;89.96;99517.25;6093274;23;20032;-83
2023/10/23 11:32:34;;;;;;;7.88;1.80;;;;;;;12.09;90.00;99510.78;6093198;23;20045;-83
2023/10/23 11:35:05;;;;;;;6.25;1.65;;;;;;;12.08;89.54;99511.75;6093149;23;20033;-84
2023/10/23 11:37:36;;;;;;;7.65;1.73;;;;;;;12.09;89.78;99502.81;6116486;23;20092;-84